Aviation Digital Data Service (ADDS)

Output produced by METARs form (2256 UTC 20 January 2019)
found at http://www.aviationweather.gov/metar/data/
 
Forecast for: YBCG (COOLANGATTA AWS , AU)
Text: TAF YBCG 201722Z 2018/2118 22005KT 9999 SCT035
Forecast period: 1800 to 2300 UTC 20 January 2019
Forecast type: FROM: standard forecast or significant change
Winds: from the SW (220 degrees) at 6 MPH (5 knots; 2.6 m/s)
Visibility: 6 or more miles 10+ km)
Ceiling: at least 12,000 feet AGL
Clouds: scattered clouds at 3500 feet AGL
Weather: no significant weather forecast for this period
Text: FM202300 06012KT 9999 FEW040
Forecast period: 2300 UTC 20 January 2019 to 1500 UTC 21 January 2019
Forecast type: FROM: standard forecast or significant change
Winds: from the ENE (60 degrees) at 14 MPH (12 knots; 6.2 m/s)
Visibility: 6 or more miles 10+ km)
Ceiling: at least 12,000 feet AGL
Clouds: few clouds at 4000 feet AGL
Weather: no significant weather forecast for this period
Text: FM211500 22004KT 9999 SCT025
Forecast period: 1500 to 1800 UTC 21 January 2019
Forecast type: FROM: standard forecast or significant change
Winds: from the SW (220 degrees) at 5 MPH (4 knots; 2.1 m/s)
Visibility: 6 or more miles 10+ km)
Ceiling: at least 12,000 feet AGL
Clouds: scattered clouds at 2500 feet AGL
Weather: no significant weather forecast for this period